Time;durP1;ratioP1;P1;durP2;ratioP2;P2;SDS_P1;SDS_P2;PMS_P1;PMS_P2;Temp;Humidity;BMP_temperature;BMP_pressure;BME280_temperature;BME280_humidity;BME280_pressure;Samples;Min_cycle;Max_cycle;Signal;HPM_P1;HPM_P2
2021/06/21 00:00:59;;;;;;;12.05;9.65;;;22.30;99.90;;;;;;4426325;32;20450;-71
2021/06/21 00:03:26;;;;;;;14.53;10.00;;;22.30;99.90;;;;;;4426283;32;20162;-72
2021/06/21 00:05:52;;;;;;;14.00;10.70;;;22.30;99.90;;;;;;4427565;32;20211;-71
2021/06/21 00:08:19;;;;;;;16.33;10.27;;;22.30;99.90;;;;;;4426152;32;20537;-70
2021/06/21 00:10:46;;;;;;;13.23;10.13;;;22.20;99.90;;;;;;4426356;32;20200;-72
2021/06/21 00:13:13;;;;;;;12.93;10.70;;;22.20;99.90;;;;;;4425343;32;20492;-72
2021/06/21 00:15:40;;;;;;;13.53;10.07;;;22.00;99.90;;;;;;4425984;32;20146;-71
2021/06/21 00:18:07;;;;;;;13.70;10.70;;;22.10;99.90;;;;;;4427354;32;20155;-72
2021/06/21 00:20:34;;;;;;;15.45;10.85;;;22.10;99.90;;;;;;4425618;32;20196;-72
2021/06/21 00:23:01;;;;;;;13.10;10.73;;;22.10;99.90;;;;;;4425926;32;20159;-72
2021/06/21 00:25:28;;;;;;;16.02;10.85;;;22.00;99.90;;;;;;4425921;32;20150;-72
2021/06/21 00:27:55;;;;;;;12.63;11.13;;;22.00;99.90;;;;;;4425956;32;20496;-72
2021/06/21 00:30:22;;;;;;;14.25;11.20;;;21.90;99.90;;;;;;4425890;32;20521;-71
2021/06/21 00:32:50;;;;;;;18.48;11.07;;;21.90;99.90;;;;;;4426077;32;20475;-71
2021/06/21 00:35:18;;;;;;;14.43;11.13;;;21.90;99.90;;;;;;4425055;32;20138;-70
2021/06/21 00:37:46;;;;;;;14.00;11.40;;;21.80;99.90;;;;;;4425893;32;20139;-70
2021/06/21 00:40:15;;;;;;;14.50;10.70;;;21.80;99.90;;;;;;4425718;32;20205;-70
2021/06/21 00:42:43;;;;;;;15.30;11.00;;;21.80;99.90;;;;;;4425698;32;20150;-70
2021/06/21 00:45:12;;;;;;;15.63;11.07;;;21.70;99.90;;;;;;4425542;32;20454;-70
2021/06/21 00:47:39;;;;;;;17.43;10.77;;;21.70;99.90;;;;;;4427068;32;20192;-70
2021/06/21 00:50:07;;;;;;;12.23;10.30;;;21.60;99.90;;;;;;4426978;32;20166;-70
2021/06/21 00:52:34;;;;;;;12.73;10.60;;;21.60;99.90;;;;;;4425439;32;20177;-70
2021/06/21 00:55:01;;;;;;;14.37;11.30;;;21.60;99.90;;;;;;4425231;32;20146;-71
2021/06/21 00:57:33;;;;;;;13.83;10.93;;;21.60;99.90;;;;;;4425247;32;20151;-71
2021/06/21 01:00:04;;;;;;;12.67;10.30;;;21.60;99.90;;;;;;4426763;32;20327;-71
2021/06/21 01:02:31;;;;;;;14.07;11.13;;;21.50;99.90;;;;;;4425228;32;20189;-70
2021/06/21 01:04:58;;;;;;;15.53;10.77;;;21.50;99.90;;;;;;4426616;32;20143;-70
2021/06/21 01:07:25;;;;;;;13.07;11.13;;;21.40;99.90;;;;;;4425160;32;20192;-71
2021/06/21 01:09:54;;;;;;;14.87;11.30;;;21.40;99.90;;;;;;4425293;32;20135;-70
2021/06/21 01:12:47;;;;;;;15.83;10.97;;;21.40;99.90;;;;;;4425859;32;20441;-71
2021/06/21 01:15:16;;;;;;;15.17;11.20;;;21.40;99.90;;;;;;4426446;32;20407;-71
2021/06/21 01:18:06;;;;;;;14.57;11.37;;;21.30;99.90;;;;;;4425279;32;20181;-71
2021/06/21 01:20:48;;;;;;;15.37;11.60;;;21.30;99.90;;;;;;4424876;32;20225;-71
2021/06/21 01:23:37;;;;;;;15.47;11.30;;;21.20;99.90;;;;;;4426613;32;20219;-71
2021/06/21 01:26:12;;;;;;;15.47;11.57;;;21.20;99.90;;;;;;4426262;32;20142;-70
2021/06/21 01:28:58;;;;;;;13.67;11.40;;;21.20;99.90;;;;;;4425385;32;20147;-70
2021/06/21 01:31:55;;;;;;;15.93;11.43;;;21.20;99.90;;;;;;4425756;32;20146;-70
2021/06/21 01:34:27;;;;;;;16.80;11.03;;;21.10;99.90;;;;;;4425254;32;20154;-70
2021/06/21 01:36:58;;;;;;;16.73;11.60;;;21.10;99.90;;;;;;4424873;32;20433;-70
2021/06/21 01:39:28;;;;;;;15.10;11.07;;;21.10;99.90;;;;;;4424993;32;20194;-71
2021/06/21 01:42:02;;;;;;;13.97;10.90;;;21.10;99.90;;;;;;4425524;32;20139;-70
2021/06/21 01:44:33;;;;;;;15.43;10.83;;;21.00;99.90;;;;;;4424348;32;20181;-70
2021/06/21 01:47:01;;;;;;;17.57;10.87;;;21.00;99.90;;;;;;4426027;32;20143;-71
2021/06/21 01:49:32;;;;;;;12.40;10.70;;;21.00;99.90;;;;;;4424657;32;20147;-71
2021/06/21 01:52:02;;;;;;;14.83;11.10;;;21.00;99.90;;;;;;4424600;32;20142;-71
2021/06/21 01:54:31;;;;;;;14.23;10.63;;;21.00;99.90;;;;;;4425920;32;20158;-71
2021/06/21 01:57:03;;;;;;;14.03;11.23;;;21.00;99.90;;;;;;4424423;32;20456;-71
2021/06/21 01:59:30;;;;;;;14.17;11.27;;;21.00;99.90;;;;;;4426126;32;20355;-71
2021/06/21 02:01:59;;;;;;;14.40;12.00;;;20.90;99.90;;;;;;4422644;32;20163;-71
2021/06/21 02:04:31;;;;;;;15.63;11.53;;;20.80;99.90;;;;;;4424118;32;20488;-71
2021/06/21 02:07:00;;;;;;;13.93;11.60;;;20.70;99.90;;;;;;4425941;32;20146;-71
2021/06/21 02:09:27;;;;;;;18.07;11.77;;;20.80;99.90;;;;;;4425093;32;20552;-72
2021/06/21 02:11:56;;;;;;;16.30;12.00;;;20.80;99.90;;;;;;4424281;32;20203;-71
2021/06/21 02:14:27;;;;;;;16.30;12.10;;;20.80;99.90;;;;;;4425578;32;20263;-72
2021/06/21 02:16:55;;;;;;;16.67;11.97;;;20.70;99.90;;;;;;4423965;32;20221;-73
2021/06/21 02:19:31;;;;;;;14.97;12.07;;;20.60;99.90;;;;;;4424113;32;20138;-71
2021/06/21 02:21:59;;;;;;;16.00;12.63;;;20.60;99.90;;;;;;4425845;32;20230;-71
2021/06/21 02:24:27;;;;;;;18.57;12.00;;;20.60;99.90;;;;;;4425607;32;20151;-71
2021/06/21 02:26:53;;;;;;;14.30;12.10;;;20.50;99.90;;;;;;4424100;32;20177;-71
2021/06/21 02:29:25;;;;;;;14.63;12.07;;;20.60;99.90;;;;;;4423322;32;20143;-71
2021/06/21 02:31:52;;;;;;;16.00;12.53;;;20.50;99.90;;;;;;4425738;32;20155;-71
2021/06/21 02:34:20;;;;;;;13.93;12.20;;;20.50;99.90;;;;;;4424119;32;20236;-71
2021/06/21 02:36:48;;;;;;;15.37;11.70;;;20.50;99.90;;;;;;4425390;32;20142;-70
2021/06/21 02:39:16;;;;;;;16.37;11.90;;;20.50;99.90;;;;;;4425483;32;20186;-71
2021/06/21 02:41:44;;;;;;;15.83;11.43;;;20.50;99.90;;;;;;4424004;32;20384;-72
2021/06/21 02:44:11;;;;;;;15.33;12.27;;;20.50;99.90;;;;;;4423788;32;20261;-71
2021/06/21 02:46:38;;;;;;;14.27;11.67;;;20.50;99.90;;;;;;4424012;32;20143;-71
2021/06/21 02:49:05;;;;;;;19.23;12.43;;;20.40;99.90;;;;;;4425259;32;20216;-71
2021/06/21 02:51:40;;;;;;;17.30;11.83;;;20.40;99.90;;;;;;4425257;32;20496;-71
2021/06/21 02:54:18;;;;;;;16.20;11.77;;;20.40;99.90;;;;;;4423477;32;20158;-71
2021/06/21 02:56:58;;;;;;;17.73;12.40;;;20.30;99.90;;;;;;4424484;32;20138;-70
2021/06/21 02:59:27;;;;;;;16.53;11.53;;;20.40;99.90;;;;;;4430181;32;20515;-70
2021/06/21 03:01:56;;;;;;;17.00;11.73;;;20.50;99.90;;;;;;4438991;32;20172;-70
2021/06/21 03:04:24;;;;;;;14.63;11.43;;;20.50;99.90;;;;;;4433544;32;20177;-70
2021/06/21 03:06:52;;;;;;;16.50;12.53;;;20.50;99.90;;;;;;4427462;32;20163;-70
2021/06/21 03:09:21;;;;;;;16.57;12.20;;;20.50;99.90;;;;;;4423791;32;20177;-70
2021/06/21 03:11:52;;;;;;;15.67;12.43;;;20.40;99.90;;;;;;4423767;32;20193;-70
2021/06/21 03:14:28;;;;;;;15.30;11.93;;;20.50;99.90;;;;;;4424036;32;20456;-70
2021/06/21 03:16:58;;;;;;;16.23;11.97;;;20.40;99.90;;;;;;4423775;32;20134;-70
2021/06/21 03:19:29;;;;;;;17.33;11.77;;;20.40;99.90;;;;;;4422803;32;20147;-70
2021/06/21 03:21:56;;;;;;;16.13;12.03;;;20.40;99.90;;;;;;4423835;32;20143;-70
2021/06/21 03:24:24;;;;;;;15.97;11.80;;;20.40;99.90;;;;;;4423054;32;20163;-70
2021/06/21 03:26:52;;;;;;;13.63;11.50;;;20.50;99.90;;;;;;4423035;32;20484;-71
2021/06/21 03:29:21;;;;;;;16.70;11.73;;;20.40;99.90;;;;;;4423710;32;20525;-70
2021/06/21 03:31:50;;;;;;;14.47;11.00;;;20.50;99.90;;;;;;4423666;32;20194;-71
2021/06/21 03:34:18;;;;;;;15.77;10.93;;;20.50;99.90;;;;;;4423605;32;20166;-70
2021/06/21 03:36:46;;;;;;;14.13;10.40;;;20.50;99.90;;;;;;4423046;32;20202;-70
2021/06/21 03:39:13;;;;;;;15.03;10.70;;;20.50;99.90;;;;;;4423614;32;20202;-70
2021/06/21 03:41:40;;;;;;;13.07;10.13;;;20.60;99.90;;;;;;4423612;32;20139;-70
2021/06/21 03:44:07;;;;;;;15.20;10.00;;;20.60;99.90;;;;;;4422726;32;20155;-70
2021/06/21 03:46:34;;;;;;;11.13;9.63;;;20.60;99.90;;;;;;4423888;32;20445;-70
2021/06/21 03:49:01;;;;;;;11.97;9.30;;;20.70;99.90;;;;;;4423568;32;20225;-70
2021/06/21 03:51:28;;;;;;;13.80;9.20;;;20.70;99.90;;;;;;4423468;32;20176;-70
2021/06/21 03:53:55;;;;;;;12.23;9.13;;;20.80;99.90;;;;;;4425394;32;20202;-70
2021/06/21 03:56:22;;;;;;;12.63;8.93;;;20.90;99.90;;;;;;4426253;32;20143;-70
2021/06/21 03:58:51;;;;;;;12.33;8.07;;;20.90;99.90;;;;;;4427600;32;20146;-69
2021/06/21 04:01:18;;;;;;;10.30;8.33;;;20.90;99.90;;;;;;4426130;32;20151;-70
2021/06/21 04:03:45;;;;;;;10.93;8.20;;;20.90;99.90;;;;;;4426280;32;20215;-70
2021/06/21 04:06:12;;;;;;;11.63;8.57;;;21.00;99.90;;;;;;4426645;32;20210;-70
2021/06/21 04:08:39;;;;;;;13.17;8.10;;;21.00;99.90;;;;;;4425642;32;20143;-70
2021/06/21 04:11:06;;;;;;;12.57;8.17;;;21.10;99.90;;;;;;4426208;32;20457;-69
2021/06/21 04:13:34;;;;;;;12.17;8.10;;;21.10;99.90;;;;;;4426047;32;20181;-68
2021/06/21 04:16:01;;;;;;;12.13;7.67;;;21.10;99.90;;;;;;4427677;32;20154;-69
2021/06/21 04:18:28;;;;;;;9.23;7.47;;;21.20;99.90;;;;;;4425880;32;20174;-69
2021/06/21 04:20:55;;;;;;;9.83;7.57;;;21.30;99.90;;;;;;4425773;32;20143;-70
2021/06/21 04:23:22;;;;;;;11.43;7.50;;;21.40;99.90;;;;;;4425463;32;20192;-70
2021/06/21 04:25:48;;;;;;;10.97;7.87;;;21.40;99.90;;;;;;4425496;32;20194;-70
2021/06/21 04:28:16;;;;;;;11.60;7.60;;;21.50;99.90;;;;;;4425626;32;20187;-68
2021/06/21 04:30:45;;;;;;;9.23;7.70;;;21.50;99.90;;;;;;4425469;32;20164;-66
2021/06/21 04:33:12;;;;;;;9.13;7.00;;;21.50;99.90;;;;;;4425366;32;20155;-66
2021/06/21 04:35:39;;;;;;;12.93;7.63;;;21.60;99.90;;;;;;4425191;32;20174;-67
2021/06/21 04:38:06;;;;;;;10.47;7.03;;;21.60;99.90;;;;;;4426865;32;20185;-67
2021/06/21 04:40:37;;;;;;;10.57;7.53;;;21.70;99.90;;;;;;4425553;32;20198;-67
2021/06/21 04:43:04;;;;;;;9.47;6.60;;;21.80;99.90;;;;;;4425593;32;20228;-67
2021/06/21 04:45:32;;;;;;;9.40;6.70;;;21.80;99.90;;;;;;4425261;32;20415;-66
2021/06/21 04:48:00;;;;;;;10.97;7.13;;;21.80;99.90;;;;;;4426863;32;20143;-66
2021/06/21 04:50:27;;;;;;;12.10;7.10;;;21.90;99.90;;;;;;4426829;32;20200;-66
2021/06/21 04:52:54;;;;;;;11.10;6.50;;;21.90;99.90;;;;;;4426838;32;20205;-66
2021/06/21 04:55:23;;;;;;;13.00;6.57;;;22.00;99.90;;;;;;4426655;32;20251;-66
2021/06/21 04:57:51;;;;;;;11.43;6.93;;;22.00;99.90;;;;;;4425060;32;20507;-66
2021/06/21 05:00:22;;;;;;;9.53;6.70;;;22.00;99.90;;;;;;4426666;32;20143;-66
2021/06/21 05:02:50;;;;;;;8.10;6.40;;;22.10;99.90;;;;;;4425026;32;20151;-66
2021/06/21 05:05:19;;;;;;;14.67;6.53;;;22.20;99.90;;;;;;4426245;32;20191;-66
2021/06/21 05:07:48;;;;;;;12.77;6.50;;;22.30;99.90;;;;;;4425005;32;20186;-67
2021/06/21 05:10:17;;;;;;;13.07;6.47;;;22.30;99.90;;;;;;4425117;32;20445;-67
2021/06/21 05:12:44;;;;;;;7.80;6.40;;;22.40;99.90;;;;;;4426442;32;20487;-67
2021/06/21 05:15:12;;;;;;;8.13;6.40;;;22.50;99.90;;;;;;4426381;32;20170;-68
2021/06/21 05:17:40;;;;;;;12.10;6.72;;;22.50;99.90;;;;;;4424930;32;20143;-68
2021/06/21 05:20:08;;;;;;;11.43;6.90;;;22.50;99.90;;;;;;4424382;32;20165;-68
2021/06/21 05:22:35;;;;;;;13.75;7.07;;;22.60;99.90;;;;;;4424396;32;20147;-68
2021/06/21 05:25:04;;;;;;;7.50;6.37;;;22.70;99.90;;;;;;4424549;32;20257;-68
2021/06/21 05:27:31;;;;;;;14.63;6.55;;;22.80;99.90;;;;;;4424664;32;20182;-68
2021/06/21 05:30:00;;;;;;;13.60;6.47;;;22.90;99.90;;;;;;4425359;32;20255;-68
2021/06/21 05:32:27;;;;;;;14.20;6.85;;;22.90;99.90;;;;;;4425957;32;20147;-68
2021/06/21 05:34:53;;;;;;;11.77;6.50;;;23.00;99.90;;;;;;4423859;32;20189;-68
2021/06/21 05:37:20;;;;;;;10.15;6.68;;;23.10;99.90;;;;;;4423585;32;20218;-67
2021/06/21 05:39:47;;;;;;;12.03;7.00;;;23.10;99.90;;;;;;4424323;32;20151;-68
2021/06/21 05:42:16;;;;;;;10.47;6.63;;;23.20;99.90;;;;;;4424336;32;20223;-66
2021/06/21 05:44:43;;;;;;;12.75;6.20;;;23.20;99.90;;;;;;4423710;32;20162;-66
2021/06/21 05:47:10;;;;;;;15.50;6.50;;;23.40;99.90;;;;;;4424171;32;20147;-67
2021/06/21 05:49:36;;;;;;;14.70;6.80;;;23.40;99.90;;;;;;4423960;32;20173;-66
2021/06/21 05:52:04;;;;;;;11.43;6.60;;;23.50;99.90;;;;;;4425659;32;20150;-66
2021/06/21 05:54:31;;;;;;;11.87;6.50;;;23.60;99.90;;;;;;4425025;32;20154;-66
2021/06/21 05:56:57;;;;;;;17.15;6.60;;;23.60;99.90;;;;;;4425652;32;20148;-67
2021/06/21 05:59:24;;;;;;;10.50;6.57;;;23.70;99.90;;;;;;4424143;32;20178;-67
2021/06/21 06:01:51;;;;;;;11.45;6.65;;;23.80;99.90;;;;;;4425349;32;20158;-67
2021/06/21 06:04:19;;;;;;;15.37;6.97;;;23.90;99.90;;;;;;4425267;32;20194;-67
2021/06/21 06:06:45;;;;;;;9.60;6.53;;;24.00;99.90;;;;;;4425544;32;20151;-67
2021/06/21 06:09:12;;;;;;;12.55;6.82;;;24.10;99.90;;;;;;4424089;32;20400;-67
2021/06/21 06:11:39;;;;;;;13.52;6.22;;;24.20;99.90;;;;;;4424256;32;20184;-67
2021/06/21 06:14:06;;;;;;;17.20;6.35;;;24.30;99.90;;;;;;4424065;32;20146;-67
2021/06/21 06:16:33;;;;;;;13.30;6.18;;;24.30;99.90;;;;;;4423545;32;20177;-67
2021/06/21 06:19:00;;;;;;;13.90;6.15;;;24.50;99.90;;;;;;4424179;32;20192;-67
2021/06/21 06:21:29;;;;;;;13.50;6.03;;;24.50;99.90;;;;;;4424911;32;20158;-67
2021/06/21 06:23:57;;;;;;;12.77;5.43;;;24.60;99.90;;;;;;4423830;32;20199;-67
2021/06/21 06:26:24;;;;;;;14.43;5.62;;;24.60;99.90;;;;;;4423344;32;20250;-67
2021/06/21 06:28:52;;;;;;;19.25;5.90;;;24.70;99.90;;;;;;4424348;32;20140;-66
2021/06/21 06:31:19;;;;;;;14.68;6.00;;;24.80;99.90;;;;;;4423903;32;20147;-66
2021/06/21 06:33:47;;;;;;;20.15;5.90;;;24.90;99.90;;;;;;4423787;32;20138;-66
2021/06/21 06:36:14;;;;;;;13.82;5.78;;;24.90;99.90;;;;;;4425127;32;20201;-67
2021/06/21 06:38:41;;;;;;;22.95;6.12;;;25.00;99.90;;;;;;4423946;32;20235;-67
2021/06/21 06:41:08;;;;;;;17.83;5.22;;;25.00;99.90;;;;;;4423663;32;20158;-67
2021/06/21 06:43:35;;;;;;;15.95;5.82;;;25.10;99.90;;;;;;4424841;32;20139;-66
2021/06/21 06:46:02;;;;;;;10.68;5.10;;;25.20;99.90;;;;;;4425335;32;20151;-66
2021/06/21 06:48:30;;;;;;;11.68;5.47;;;25.20;99.90;;;;;;4423834;32;20189;-66
2021/06/21 06:50:57;;;;;;;18.52;5.57;;;25.20;99.90;;;;;;4424966;32;20469;-67
2021/06/21 06:53:39;;;;;;;11.75;5.00;;;25.40;99.90;;;;;;4425185;32;20229;-67
2021/06/21 06:58:52;;;;;;;15.95;5.18;;;25.70;99.90;;;;;;4425108;32;20163;-67
2021/06/21 07:01:19;;;;;;;18.83;5.50;;;25.80;99.90;;;;;;4424975;32;20142;-67
2021/06/21 07:03:49;;;;;;;18.05;5.68;;;25.80;99.90;;;;;;4423721;32;20455;-67
2021/06/21 07:06:17;;;;;;;13.07;5.93;;;25.80;99.90;;;;;;4425119;32;20166;-67
2021/06/21 07:08:45;;;;;;;15.90;5.60;;;25.80;99.90;;;;;;4425120;32;20142;-68
2021/06/21 07:11:13;;;;;;;10.25;4.95;;;25.90;99.90;;;;;;4424514;32;20139;-67
2021/06/21 07:13:41;;;;;;;13.00;5.10;;;26.10;99.90;;;;;;4424163;32;20195;-68
2021/06/21 07:16:09;;;;;;;15.07;5.53;;;26.10;99.90;;;;;;4424752;32;20384;-68
2021/06/21 07:18:36;;;;;;;17.50;5.10;;;26.20;99.90;;;;;;4424955;32;20143;-67
2021/06/21 07:21:07;;;;;;;14.38;4.97;;;26.40;99.90;;;;;;4425255;32;20135;-67
2021/06/21 07:23:34;;;;;;;15.40;4.87;;;26.40;99.90;;;;;;4424947;32;20194;-67
2021/06/21 07:26:01;;;;;;;12.05;4.28;;;26.50;99.90;;;;;;4423521;32;20139;-67
2021/06/21 07:28:28;;;;;;;12.88;4.70;;;26.50;99.90;;;;;;4424700;32;20184;-67
2021/06/21 07:30:55;;;;;;;17.00;4.28;;;26.60;99.90;;;;;;4426511;32;20207;-67
2021/06/21 07:33:23;;;;;;;12.48;4.10;;;26.70;99.90;;;;;;4427559;32;20139;-67
2021/06/21 07:35:50;;;;;;;12.70;4.30;;;26.70;99.90;;;;;;4427235;32;20147;-66
2021/06/21 07:38:19;;;;;;;9.13;3.90;;;26.70;99.90;;;;;;4427646;32;20135;-66
2021/06/21 07:40:46;;;;;;;15.07;4.15;;;26.70;99.90;;;;;;4427619;32;20234;-67
2021/06/21 07:43:13;;;;;;;11.40;4.05;;;26.70;99.90;;;;;;4426911;32;20204;-67
2021/06/21 07:45:41;;;;;;;10.63;3.60;;;26.90;99.90;;;;;;4427655;32;20158;-67
2021/06/21 07:48:08;;;;;;;9.93;3.65;;;27.00;99.90;;;;;;4426539;32;20151;-67
2021/06/21 07:50:35;;;;;;;8.70;3.50;;;27.10;99.90;;;;;;4427643;32;20211;-67
2021/06/21 07:53:03;;;;;;;9.93;3.30;;;27.10;99.90;;;;;;4426250;32;20163;-67
2021/06/21 07:55:30;;;;;;;9.48;3.50;;;27.10;99.90;;;;;;4425491;32;20151;-67
2021/06/21 07:57:58;;;;;;;9.18;3.28;;;27.20;99.90;;;;;;4427440;32;20142;-67
2021/06/21 08:00:26;;;;;;;12.37;3.30;;;27.20;99.90;;;;;;4427624;32;20139;-67
2021/06/21 08:02:54;;;;;;;7.60;3.20;;;27.20;99.80;;;;;;4427321;32;20457;-67
2021/06/21 08:05:23;;;;;;;11.98;3.35;;;27.30;99.30;;;;;;4427422;32;20143;-67
2021/06/21 08:07:50;;;;;;;11.98;3.10;;;27.40;99.00;;;;;;4427582;32;20422;-67
2021/06/21 08:10:17;;;;;;;9.40;3.03;;;27.40;99.00;;;;;;4427469;32;20243;-67
2021/06/21 08:12:44;;;;;;;9.98;3.33;;;27.60;98.10;;;;;;4426177;32;20188;-66
2021/06/21 08:15:12;;;;;;;11.32;3.40;;;27.60;97.40;;;;;;4427386;32;20169;-67
2021/06/21 08:17:40;;;;;;;7.80;3.30;;;27.60;97.50;;;;;;4427249;32;20151;-66
2021/06/21 08:20:09;;;;;;;14.20;3.65;;;27.60;97.50;;;;;;4426251;32;20180;-67
2021/06/21 08:22:36;;;;;;;9.18;3.40;;;27.70;98.30;;;;;;4427164;32;20146;-67
2021/06/21 08:25:05;;;;;;;14.23;3.67;;;27.90;99.00;;;;;;4426095;32;20161;-67
2021/06/21 08:27:32;;;;;;;10.20;3.10;;;28.40;97.50;;;;;;4427010;32;20355;-66
2021/06/21 08:29:59;;;;;;;11.05;3.60;;;29.10;94.70;;;;;;4425416;32;20367;-68
2021/06/21 08:32:27;;;;;;;13.25;2.97;;;29.90;92.60;;;;;;4426793;32;20188;-67
2021/06/21 08:34:54;;;;;;;11.98;2.95;;;30.60;90.00;;;;;;4426755;32;20387;-67
2021/06/21 08:37:21;;;;;;;12.30;2.75;;;31.10;86.70;;;;;;4427448;32;20138;-66
2021/06/21 08:39:50;;;;;;;11.15;2.65;;;31.60;83.90;;;;;;4426426;32;20162;-67
2021/06/21 08:42:18;;;;;;;9.88;2.97;;;31.80;80.90;;;;;;4425796;32;20189;-67
2021/06/21 08:44:46;;;;;;;9.48;2.47;;;32.10;76.10;;;;;;4425653;32;20198;-67
2021/06/21 08:47:18;;;;;;;13.38;2.80;;;32.40;74.00;;;;;;4426898;32;20213;-66
2021/06/21 08:49:47;;;;;;;7.45;2.87;;;32.50;70.20;;;;;;4427238;32;20524;-68
2021/06/21 08:52:15;;;;;;;10.60;2.83;;;32.60;70.00;;;;;;4425195;32;20143;-66
2021/06/21 08:54:42;;;;;;;9.63;2.58;;;32.80;68.10;;;;;;4425238;32;20151;-67
2021/06/21 08:57:10;;;;;;;9.35;2.50;;;32.80;68.20;;;;;;4425851;32;20143;-67
2021/06/21 08:59:41;;;;;;;9.40;2.37;;;33.20;65.60;;;;;;4425601;32;20151;-66
2021/06/21 09:02:08;;;;;;;11.32;2.50;;;33.00;64.10;;;;;;4424578;32;20489;-68
2021/06/21 09:04:38;;;;;;;6.55;2.08;;;33.10;64.20;;;;;;4424717;32;20408;-67
2021/06/21 09:07:19;;;;;;;9.93;2.50;;;33.00;62.50;;;;;;4426134;32;20230;-66
2021/06/21 09:09:47;;;;;;;9.93;2.47;;;33.00;63.00;;;;;;4426556;32;20174;-67
2021/06/21 09:12:23;;;;;;;8.38;2.37;;;33.00;62.50;;;;;;4426350;32;20173;-67
2021/06/21 09:14:50;;;;;;;9.07;2.30;;;33.10;60.10;;;;;;4425577;32;20147;-67
2021/06/21 09:17:21;;;;;;;8.70;2.20;;;33.00;59.60;;;;;;4426197;32;20188;-67
2021/06/21 09:19:53;;;;;;;6.72;2.30;;;33.20;60.00;;;;;;4425824;32;20173;-68
2021/06/21 09:22:39;;;;;;;5.80;2.10;;;33.50;60.80;;;;;;4425991;32;20150;-67
2021/06/21 09:25:23;;;;;;;5.05;2.20;;;33.70;59.00;;;;;;4423900;32;20166;-67
2021/06/21 09:28:04;;;;;;;6.85;2.10;;;33.80;57.80;;;;;;4425903;32;20441;-67
2021/06/21 09:30:47;;;;;;;7.55;2.40;;;33.70;60.00;;;;;;4425652;32;20143;-66
2021/06/21 09:33:28;;;;;;;7.85;2.12;;;33.90;58.50;;;;;;4426008;32;20487;-67
2021/06/21 09:35:55;;;;;;;8.50;2.47;;;34.00;58.10;;;;;;4426221;32;20242;-67
2021/06/21 09:38:22;;;;;;;7.90;2.60;;;33.90;56.30;;;;;;4424625;32;20538;-67
2021/06/21 09:40:54;;;;;;;8.35;2.20;;;34.20;57.20;;;;;;4424379;32;20184;-67
2021/06/21 09:43:24;;;;;;;10.40;2.20;;;34.40;55.70;;;;;;4425174;32;20460;-67
2021/06/21 09:46:01;;;;;;;8.63;2.50;;;34.40;55.80;;;;;;4424963;32;20192;-68
2021/06/21 09:48:35;;;;;;;7.07;2.20;;;34.30;55.20;;;;;;4424222;32;20368;-67
2021/06/21 09:51:21;;;;;;;9.70;2.10;;;34.40;54.80;;;;;;4423708;32;20431;-67
2021/06/21 09:53:53;;;;;;;7.32;2.17;;;34.50;53.60;;;;;;4425436;32;20364;-67
2021/06/21 09:56:45;;;;;;;6.20;2.30;;;34.60;53.40;;;;;;4425534;32;20203;-67
2021/06/21 09:59:20;;;;;;;9.50;2.50;;;34.60;53.80;;;;;;4425873;32;20191;-67
2021/06/21 10:02:04;;;;;;;5.93;1.90;;;34.70;52.10;;;;;;4424528;32;20423;-67
2021/06/21 10:04:33;;;;;;;6.55;2.35;;;34.60;52.60;;;;;;4424300;32;20134;-68
2021/06/21 10:07:00;;;;;;;6.80;2.25;;;34.80;52.70;;;;;;4426036;32;20222;-67
2021/06/21 10:09:27;;;;;;;5.90;2.10;;;35.00;52.00;;;;;;4425810;32;20147;-67
2021/06/21 10:11:54;;;;;;;8.85;2.53;;;35.20;52.20;;;;;;4424201;32;20420;-67
2021/06/21 10:14:28;;;;;;;4.10;2.22;;;35.10;51.50;;;;;;4424828;32;20169;-67
2021/06/21 10:16:57;;;;;;;6.20;2.15;;;35.40;52.00;;;;;;4424214;32;20143;-67
2021/06/21 10:19:24;;;;;;;4.78;2.00;;;35.70;50.30;;;;;;4423760;32;20159;-67
2021/06/21 10:21:55;;;;;;;8.98;2.10;;;35.70;49.90;;;;;;4423919;32;20203;-67
2021/06/21 10:24:30;;;;;;;8.60;2.10;;;35.60;48.90;;;;;;4425306;32;20498;-67
2021/06/21 10:26:58;;;;;;;6.12;2.20;;;35.60;49.20;;;;;;4424121;32;20143;-67
2021/06/21 10:29:26;;;;;;;4.80;2.00;;;36.00;48.90;;;;;;4425515;32;20510;-68
2021/06/21 10:31:54;;;;;;;6.62;1.80;;;36.10;47.30;;;;;;4424042;32;20222;-67
2021/06/21 10:34:21;;;;;;;5.68;2.00;;;35.80;46.80;;;;;;4425515;32;20142;-67
2021/06/21 10:36:49;;;;;;;10.85;1.90;;;35.80;46.60;;;;;;4425439;32;20399;-67
2021/06/21 10:39:25;;;;;;;5.78;2.00;;;35.30;46.80;;;;;;4425458;32;20216;-68
2021/06/21 10:42:04;;;;;;;8.65;2.30;;;35.30;48.20;;;;;;4424246;32;20135;-67
2021/06/21 10:44:49;;;;;;;6.93;1.95;;;35.70;48.60;;;;;;4423872;32;20470;-67
2021/06/21 10:47:23;;;;;;;5.07;2.00;;;36.00;47.10;;;;;;4424819;32;20136;-68
2021/06/21 10:50:00;;;;;;;7.30;2.10;;;36.10;46.70;;;;;;4425321;32;20177;-68
2021/06/21 10:52:35;;;;;;;5.82;1.80;;;35.70;46.20;;;;;;4424526;32;20146;-67
2021/06/21 10:55:24;;;;;;;6.15;1.95;;;35.70;47.70;;;;;;4425698;32;20149;-67
2021/06/21 10:57:56;;;;;;;5.50;1.77;;;35.70;46.40;;;;;;4425303;32;20146;-67
2021/06/21 11:00:43;;;;;;;7.97;1.77;;;36.20;46.60;;;;;;4424832;32;20194;-68
2021/06/21 11:03:25;;;;;;;5.87;2.17;;;36.70;46.10;;;;;;4426180;32;20313;-68
2021/06/21 11:05:55;;;;;;;6.93;1.80;;;36.70;44.60;;;;;;4427731;32;20193;-68
2021/06/21 11:08:26;;;;;;;3.30;1.87;;;36.70;45.20;;;;;;4426903;32;20143;-68
2021/06/21 11:10:58;;;;;;;3.78;1.62;;;36.80;43.80;;;;;;4428346;32;20147;-68
2021/06/21 11:13:37;;;;;;;7.28;2.00;;;36.80;45.30;;;;;;4428411;32;20146;-67
2021/06/21 11:16:24;;;;;;;6.62;2.00;;;37.20;46.00;;;;;;4426817;32;20143;-68
2021/06/21 11:19:22;;;;;;;5.82;1.95;;;37.40;44.60;;;;;;4428205;32;20383;-68
2021/06/21 11:21:53;;;;;;;6.07;1.95;;;37.80;44.00;;;;;;4428225;32;20131;-67
2021/06/21 11:24:35;;;;;;;5.45;1.90;;;37.90;42.60;;;;;;4426820;32;20202;-68
2021/06/21 11:27:21;;;;;;;4.22;1.70;;;37.70;42.50;;;;;;4428205;32;20456;-67
2021/06/21 11:29:57;;;;;;;3.53;1.80;;;37.80;42.00;;;;;;4427991;32;20182;-67
2021/06/21 11:32:25;;;;;;;4.10;1.80;;;37.90;41.90;;;;;;4427309;32;20158;-67
2021/06/21 11:34:59;;;;;;;6.82;2.00;;;38.00;41.90;;;;;;4427325;32;20416;-68
2021/06/21 11:37:44;;;;;;;5.75;1.95;;;38.10;41.90;;;;;;4428006;32;20165;-67
2021/06/21 11:40:15;;;;;;;4.93;1.60;;;38.50;41.70;;;;;;4426705;32;20131;-67
2021/06/21 11:43:01;;;;;;;6.18;2.00;;;38.50;41.90;;;;;;4427866;32;20491;-68
2021/06/21 11:46:04;;;;;;;3.97;1.83;;;38.70;41.80;;;;;;4426340;32;20215;-68
2021/06/21 11:48:35;;;;;;;8.95;2.05;;;38.80;41.60;;;;;;4365607;32;20148;-68
2021/06/21 11:51:15;;;;;;;4.68;1.77;;;38.80;40.70;;;;;;4363800;32;20478;-68
2021/06/21 11:53:48;;;;;;;8.18;1.80;;;38.70;40.40;;;;;;4365871;32;20169;-68
2021/06/21 11:56:23;;;;;;;3.85;1.80;;;38.80;40.20;;;;;;4364992;32;20155;-68
2021/06/21 11:58:51;;;;;;;5.40;1.70;;;39.20;41.40;;;;;;4365299;32;20147;-67
2021/06/21 12:01:23;;;;;;;7.75;2.00;;;39.20;39.20;;;;;;4365057;32;20183;-67
2021/06/21 12:03:58;;;;;;;5.40;1.70;;;38.80;38.20;;;;;;4363625;32;20152;-67
2021/06/21 12:06:26;;;;;;;4.72;1.90;;;38.40;39.50;;;;;;4363271;32;20190;-67
2021/06/21 12:08:53;;;;;;;3.92;1.60;;;38.40;39.30;;;;;;4363609;32;20152;-67
2021/06/21 12:11:27;;;;;;;5.72;1.58;;;38.70;39.30;;;;;;4363370;32;20222;-67
2021/06/21 12:14:05;;;;;;;4.87;1.62;;;38.90;38.90;;;;;;4364754;32;20148;-67
2021/06/21 12:16:39;;;;;;;1.60;1.40;;;38.60;38.20;;;;;;4364562;32;20512;-67
2021/06/21 12:19:06;;;;;;;2.12;1.60;;;38.10;38.70;;;;;;4363403;32;20139;-67
2021/06/21 12:21:44;;;;;;;4.62;1.75;;;38.20;39.10;;;;;;4368574;32;20144;-67
2021/06/21 12:24:22;;;;;;;4.53;1.70;;;38.40;39.30;;;;;;4426404;32;20147;-67
2021/06/21 12:26:51;;;;;;;5.35;1.80;;;38.50;38.90;;;;;;4425292;32;20135;-66
2021/06/21 12:29:26;;;;;;;5.40;1.83;;;38.20;38.40;;;;;;4427031;32;20202;-68
2021/06/21 12:31:55;;;;;;;6.15;1.70;;;38.50;38.60;;;;;;4427341;32;20143;-67
2021/06/21 12:34:48;;;;;;;5.00;1.65;;;38.60;38.60;;;;;;4425881;32;20142;-67
2021/06/21 12:37:20;;;;;;;6.18;1.90;;;38.50;37.70;;;;;;4427016;32;20405;-67
2021/06/21 12:39:54;;;;;;;3.35;1.60;;;38.30;36.20;;;;;;4427021;32;20231;-67
2021/06/21 12:42:25;;;;;;;3.80;1.70;;;38.00;37.60;;;;;;4427137;32;20143;-67
2021/06/21 12:44:52;;;;;;;3.12;1.48;;;38.20;37.90;;;;;;4425488;32;20292;-67
2021/06/21 12:47:29;;;;;;;4.93;1.83;;;37.80;38.70;;;;;;4427062;32;20169;-67
2021/06/21 12:50:04;;;;;;;3.03;1.60;;;38.10;38.60;;;;;;4425834;32;20169;-67
2021/06/21 12:52:32;;;;;;;4.57;1.83;;;38.30;38.00;;;;;;4425557;32;20510;-67
2021/06/21 12:55:06;;;;;;;3.72;1.60;;;38.50;38.60;;;;;;4425267;32;20194;-69
2021/06/21 12:58:01;;;;;;;6.70;1.75;;;38.70;38.30;;;;;;4427048;32;20444;-67